createdAt,value
2016-08-17T00:07:34.224Z,66.44
2016-08-17T00:13:34.481Z,73.75
2016-08-17T00:19:34.714Z,72.06
2016-08-17T00:31:35.241Z,73.76
2016-08-17T00:37:35.449Z,79.06
2016-08-17T00:43:35.702Z,77.88
2016-08-17T00:49:35.985Z,83.22
2016-08-17T00:58:36.413Z,81.02
2016-08-17T01:04:36.674Z,81.01
2016-08-17T01:15:37.184Z,84.20
2016-08-17T01:21:37.389Z,82.27
2016-08-17T01:27:37.649Z,80.29
2016-08-17T01:33:37.914Z,83.18
2016-08-17T01:39:38.177Z,84.47
2016-08-17T01:45:38.506Z,89.88
2016-08-17T01:53:38.892Z,87.08
2016-08-17T01:59:39.114Z,90.25
2016-08-17T02:05:39.340Z,88.07
2016-08-17T02:11:39.589Z,91.98
2016-08-17T02:21:40.050Z,82.34
2016-08-17T02:27:40.240Z,88.32
2016-08-17T02:33:40.482Z,90.10
2016-08-17T02:39:40.740Z,90.53
2016-08-17T02:51:41.267Z,86.17
2016-08-17T02:57:41.628Z,77.03
2016-08-17T03:07:42.075Z,19.15
2016-08-17T03:13:42.389Z,19.64
2016-08-17T03:19:42.677Z,63.57
2016-08-17T03:25:42.945Z,96.79
2016-08-17T03:31:43.240Z,99.99
2016-08-17T03:37:43.528Z,100.00
2016-08-17T03:43:43.784Z,95.15
2016-08-17T03:49:00.667Z,54.68
2016-08-17T03:55:01.081Z,59.28
2016-08-17T04:01:00.670Z,82.99
2016-08-17T04:07:00.874Z,93.52
2016-08-17T04:13:01.302Z,99.99
2016-08-17T04:19:01.743Z,84.71
2016-08-17T04:25:02.337Z,87.98
2016-08-17T04:31:02.752Z,23.93
2016-08-17T04:37:03.207Z,0.00
2016-08-17T04:43:03.661Z,0.00
2016-08-17T04:49:04.049Z,0.00
2016-08-17T04:55:05.166Z,0.00
2016-08-17T05:01:05.586Z,0.00
2016-08-17T05:07:05.525Z,0.00
2016-08-17T05:13:05.962Z,0.00
2016-08-17T05:19:06.441Z,0.00
2016-08-17T05:25:06.861Z,0.00
2016-08-17T05:31:07.285Z,0.00
2016-08-17T05:37:07.778Z,0.00
2016-08-17T05:43:08.223Z,0.00
2016-08-17T05:49:08.732Z,0.00
2016-08-17T05:55:09.232Z,0.00
2016-08-17T06:01:09.706Z,0.00
2016-08-17T06:07:10.162Z,0.00
2016-08-17T06:13:10.656Z,0.00
2016-08-17T06:19:11.120Z,0.00
2016-08-17T06:25:11.547Z,0.00
2016-08-17T06:31:12.027Z,0.00
2016-08-17T06:37:12.449Z,0.00
2016-08-17T06:43:12.966Z,0.00
2016-08-17T06:49:13.447Z,0.00
2016-08-17T06:58:14.088Z,0.00
2016-08-17T07:04:14.530Z,0.00
2016-08-17T07:10:14.942Z,0.00
2016-08-17T07:16:15.428Z,0.00
2016-08-17T07:22:15.865Z,0.03
2016-08-17T07:28:16.272Z,0.04
2016-08-17T07:34:16.742Z,0.01
2016-08-17T07:40:17.203Z,0.02
2016-08-17T07:46:17.545Z,0.02
2016-08-17T07:52:18.119Z,0.00
2016-08-17T07:58:18.537Z,0.01
2016-08-17T08:04:18.951Z,0.00
2016-08-17T08:10:19.348Z,0.00
2016-08-17T08:16:19.815Z,0.00
2016-08-17T08:22:20.276Z,0.00
2016-08-17T08:28:20.675Z,0.00
2016-08-17T08:34:21.168Z,0.00
2016-08-17T08:40:21.573Z,0.02
2016-08-17T08:46:21.956Z,0.02
2016-08-17T08:52:22.465Z,0.04
2016-08-17T08:58:22.901Z,0.13
2016-08-17T09:04:23.254Z,0.20
2016-08-17T09:10:23.704Z,0.03
2016-08-17T09:16:24.142Z,0.01
2016-08-17T09:22:24.535Z,0.04
2016-08-17T09:28:24.977Z,0.03
2016-08-17T09:34:25.445Z,0.00
2016-08-17T09:40:25.875Z,0.07
2016-08-17T09:46:26.277Z,2.86
2016-08-17T09:52:26.720Z,4.23
2016-08-17T09:58:27.119Z,4.51
2016-08-17T10:05:27.698Z,6.97
2016-08-17T10:11:31.688Z,7.85
2016-08-17T10:17:28.584Z,8.29
2016-08-17T10:23:29.011Z,8.57
2016-08-17T10:29:29.431Z,9.18
2016-08-17T10:35:29.943Z,9.72
2016-08-17T10:41:30.455Z,11.06
2016-08-17T10:47:30.786Z,12.53
2016-08-17T10:53:31.317Z,14.21
2016-08-17T10:59:31.737Z,15.02
2016-08-17T11:05:32.167Z,16.09
2016-08-17T11:11:32.664Z,17.80
2016-08-17T11:17:33.066Z,18.56
2016-08-17T11:23:33.607Z,18.64
2016-08-17T11:29:34.064Z,18.68
2016-08-17T11:35:34.517Z,19.08
2016-08-17T11:41:34.966Z,19.08
2016-08-17T11:47:35.464Z,18.87
2016-08-17T11:53:35.964Z,19.17
2016-08-17T11:59:36.404Z,19.32
2016-08-17T12:05:36.820Z,18.57
2016-08-17T12:12:37.362Z,19.00
2016-08-17T12:18:37.752Z,18.77
2016-08-17T12:45:39.875Z,14.02
2016-08-17T12:51:40.162Z,12.05
2016-08-17T12:57:40.553Z,9.38
2016-08-17T13:05:41.155Z,7.04
2016-08-17T13:11:41.533Z,4.15
2016-08-17T13:17:43.504Z,2.48
2016-08-17T13:23:42.336Z,1.76
2016-08-17T13:29:42.736Z,10.56
2016-08-17T13:35:43.063Z,11.81
2016-08-17T13:41:43.446Z,9.60
2016-08-17T13:47:43.871Z,1.25
2016-08-17T13:53:44.292Z,21.01
2016-08-17T13:59:44.687Z,57.34
2016-08-17T14:11:45.490Z,55.58
2016-08-17T14:17:45.891Z,41.30
2016-08-17T14:23:46.285Z,24.53
2016-08-17T14:29:46.671Z,50.18
2016-08-17T14:35:47.036Z,65.67
2016-08-17T14:41:47.435Z,82.13
2016-08-17T14:47:47.758Z,95.14
2016-08-17T14:53:48.184Z,100.00
2016-08-17T14:59:48.575Z,100.00
2016-08-17T15:05:48.967Z,100.00
2016-08-17T15:11:49.304Z,100.00
2016-08-17T15:17:49.707Z,99.94
2016-08-17T15:23:50.058Z,92.78
2016-08-17T15:29:50.458Z,53.33
2016-08-17T15:35:50.872Z,12.11
2016-08-17T15:46:51.577Z,19.63
2016-08-17T15:52:51.946Z,47.92
2016-08-17T15:58:52.415Z,46.63
2016-08-17T16:04:52.761Z,36.55
2016-08-17T16:10:53.073Z,22.45
2016-08-17T16:16:53.536Z,5.59
2016-08-17T16:22:53.945Z,2.36
2016-08-17T16:28:54.254Z,0.36
2016-08-17T16:34:54.643Z,0.07
2016-08-17T16:40:55.380Z,0.03
2016-08-17T16:46:55.451Z,0.26
2016-08-17T16:52:55.755Z,0.11
2016-08-17T16:58:56.186Z,1.75
2016-08-17T17:04:56.564Z,2.84
2016-08-17T17:10:56.982Z,0.64
2016-08-17T17:16:57.461Z,0.00
2016-08-17T17:22:57.873Z,0.00
2016-08-17T17:28:58.288Z,0.01
2016-08-17T17:34:58.696Z,2.61
2016-08-17T17:40:59.057Z,1.67
2016-08-17T17:46:59.452Z,0.57
2016-08-17T17:52:59.756Z,4.05
2016-08-17T17:59:00.182Z,3.68
2016-08-17T18:05:00.589Z,13.58
2016-08-17T18:11:00.895Z,31.03
2016-08-17T18:17:01.325Z,51.82
2016-08-17T18:23:01.698Z,60.56
2016-08-17T18:29:01.994Z,63.13
2016-08-17T18:35:02.431Z,48.29
2016-08-17T18:41:02.779Z,46.25
2016-08-17T18:47:05.209Z,77.38
2016-08-17T18:53:03.590Z,99.77
2016-08-17T19:02:05.576Z,100.00
2016-08-17T19:08:04.754Z,100.00
2016-08-17T19:14:06.021Z,100.00
2016-08-17T19:22:49.866Z,54.57
2016-08-17T19:28:50.189Z,95.66
2016-08-17T19:34:50.458Z,100.00
2016-08-17T19:40:50.780Z,99.95
2016-08-17T19:46:51.063Z,95.33
2016-08-17T19:52:51.333Z,72.19
2016-08-17T19:58:51.606Z,19.29
2016-08-17T20:08:52.074Z,18.49
2016-08-17T20:15:52.383Z,24.54
2016-08-17T20:21:52.673Z,28.62
2016-08-17T20:32:53.103Z,39.37
2016-08-17T20:38:53.373Z,50.53
2016-08-17T20:47:53.785Z,60.53
2016-08-17T20:53:54.011Z,65.33
2016-08-17T20:59:54.278Z,48.53
2016-08-17T21:18:55.104Z,48.56
2016-08-17T21:24:55.359Z,60.99
2016-08-17T21:34:55.816Z,63.13
2016-08-17T21:42:56.203Z,59.74
2016-08-17T21:48:56.483Z,49.88
2016-08-17T22:02:57.060Z,43.17
2016-08-17T22:14:57.572Z,52.25
2016-08-17T22:25:58.046Z,51.78
2016-08-17T22:38:58.572Z,38.06
2016-08-17T22:44:58.874Z,46.68
2016-08-17T22:50:59.103Z,30.56
2016-08-17T23:00:59.548Z,55.77
2016-08-17T23:06:59.801Z,38.28
2016-08-17T23:13:00.078Z,29.36
2016-08-17T23:19:00.349Z,53.37
2016-08-17T23:25:00.617Z,34.79
2016-08-17T23:31:00.877Z,25.58
2016-08-17T23:43:01.398Z,19.41
2016-08-17T23:56:01.972Z,14.47
